createdAt,value
2022-10-30T00:00:25.498Z,12.26
2022-10-30T00:02:29.069Z,12.26
2022-10-30T00:04:32.908Z,12.26
2022-10-30T00:06:36.529Z,12.25
2022-10-30T00:08:40.136Z,12.25
2022-10-30T00:10:45.685Z,12.23
2022-10-30T00:12:49.333Z,12.22
2022-10-30T00:14:53.058Z,12.22
2022-10-30T00:16:58.047Z,12.22
2022-10-30T00:19:01.730Z,12.25
2022-10-30T00:21:10.456Z,12.24
2022-10-30T00:23:14.178Z,12.25
2022-10-30T00:25:17.941Z,12.24
2022-10-30T00:27:21.669Z,12.25
2022-10-30T00:29:26.522Z,12.26
2022-10-30T00:31:30.176Z,12.27
2022-10-30T00:33:35.238Z,12.26
2022-10-30T00:35:40.109Z,12.26
2022-10-30T00:37:43.633Z,12.24
2022-10-30T00:39:47.248Z,12.23
2022-10-30T00:41:53.469Z,12.22
2022-10-30T00:43:57.192Z,12.21
2022-10-30T00:46:04.588Z,12.21
2022-10-30T00:48:08.210Z,12.22
2022-10-30T00:50:18.266Z,12.22
2022-10-30T00:52:24.737Z,12.22
2022-10-30T00:54:28.609Z,12.22
2022-10-30T00:56:33.225Z,12.23
2022-10-30T00:58:41.638Z,12.24
2022-10-30T01:00:51.019Z,12.25
2022-10-30T01:02:55.695Z,12.25
2022-10-30T01:04:59.618Z,12.27
2022-10-30T01:07:12.119Z,12.25
2022-10-30T01:09:16.406Z,12.25
2022-10-30T01:11:20.149Z,12.23
2022-10-30T01:13:25.115Z,12.22
2022-10-30T01:15:34.856Z,12.21
2022-10-30T01:18:04.701Z,12.19
2022-10-30T01:20:34.514Z,12.18
2022-10-30T01:22:57.416Z,12.18
2022-10-30T01:25:13.575Z,12.18
2022-10-30T01:27:38.814Z,12.19
2022-10-30T01:29:57.023Z,12.19
2022-10-30T01:32:20.820Z,12.22
2022-10-30T01:34:35.130Z,12.23
2022-10-30T01:36:43.347Z,12.24
2022-10-30T01:38:52.979Z,12.25
2022-10-30T01:40:56.712Z,12.26
2022-10-30T01:43:01.812Z,12.27
2022-10-30T01:45:08.880Z,12.27
2022-10-30T01:47:30.192Z,12.28
2022-10-30T01:49:49.004Z,12.25
2022-10-30T01:52:00.122Z,12.24
2022-10-30T01:54:16.576Z,12.26
2022-10-30T01:56:30.768Z,12.27
2022-10-30T01:58:46.278Z,12.26
2022-10-30T02:00:54.948Z,12.26
2022-10-30T02:02:59.494Z,12.24
2022-10-30T02:05:03.915Z,12.24
2022-10-30T02:07:07.923Z,12.24
2022-10-30T02:09:19.489Z,12.25
2022-10-30T02:11:28.361Z,12.26
2022-10-30T02:13:32.577Z,12.28
2022-10-30T02:15:36.944Z,12.31
2022-10-30T02:17:41.676Z,12.34
2022-10-30T02:19:45.139Z,12.33
2022-10-30T02:21:50.454Z,12.32
2022-10-30T02:23:55.383Z,12.31
2022-10-30T02:25:59.041Z,12.30
2022-10-30T02:28:03.900Z,12.29
2022-10-30T02:30:09.509Z,12.28
2022-10-30T02:32:13.144Z,12.29
2022-10-30T02:34:16.642Z,12.29
2022-10-30T02:36:20.501Z,12.33
2022-10-30T02:38:26.358Z,12.35
2022-10-30T02:40:30.000Z,12.36
2022-10-30T02:42:33.854Z,12.39
2022-10-30T02:44:37.511Z,12.40
2022-10-30T02:46:42.331Z,12.40
2022-10-30T02:48:46.513Z,12.41
2022-10-30T02:50:51.609Z,12.42
2022-10-30T02:52:55.643Z,12.42
2022-10-30T02:55:00.793Z,12.45
2022-10-30T02:57:05.443Z,12.48
2022-10-30T02:59:09.196Z,12.47
2022-10-30T03:01:15.603Z,12.48
2022-10-30T03:03:23.047Z,12.47
2022-10-30T03:05:27.928Z,12.49
2022-10-30T03:07:31.547Z,12.50
2022-10-30T03:09:35.140Z,12.49
2022-10-30T03:11:40.961Z,12.49
2022-10-30T03:13:45.473Z,12.47
2022-10-30T03:15:48.928Z,12.47
2022-10-30T03:17:52.996Z,12.47
2022-10-30T03:19:56.681Z,12.48
2022-10-30T03:22:00.249Z,12.48
2022-10-30T03:24:03.865Z,12.48
2022-10-30T03:26:07.745Z,12.47
2022-10-30T03:28:26.462Z,12.50
2022-10-30T03:30:30.198Z,12.53
2022-10-30T03:32:39.678Z,12.55
2022-10-30T03:34:43.198Z,12.55
2022-10-30T03:36:46.854Z,12.53
2022-10-30T03:38:50.399Z,12.57
2022-10-30T03:40:55.896Z,12.56
2022-10-30T03:43:00.650Z,12.55
2022-10-30T03:45:06.379Z,12.55
2022-10-30T03:49:20.563Z,12.54
2022-10-30T03:51:24.422Z,12.53
2022-10-30T03:53:28.785Z,12.53
2022-10-30T03:55:32.059Z,12.54
2022-10-30T03:57:38.278Z,12.54
2022-10-30T03:59:52.217Z,12.55
2022-10-30T04:02:15.592Z,12.53
2022-10-30T04:04:19.176Z,12.55
2022-10-30T04:06:22.537Z,12.54
2022-10-30T04:08:25.983Z,12.58
2022-10-30T04:10:29.555Z,12.60
2022-10-30T04:12:35.219Z,12.62
2022-10-30T04:14:38.543Z,12.64
2022-10-30T04:16:41.808Z,12.65
2022-10-30T04:18:46.566Z,12.68
2022-10-30T04:20:49.912Z,12.69
2022-10-30T04:22:58.033Z,12.68
2022-10-30T04:25:01.556Z,12.69
2022-10-30T04:27:09.633Z,12.70
2022-10-30T04:29:13.947Z,12.73
2022-10-30T04:31:17.533Z,12.74
2022-10-30T04:33:21.143Z,12.76
2022-10-30T04:35:31.084Z,12.76
2022-10-30T04:37:35.311Z,12.76
2022-10-30T04:39:42.380Z,12.75
2022-10-30T04:41:53.662Z,12.78
2022-10-30T04:44:03.293Z,12.80
2022-10-30T04:46:08.833Z,12.82
2022-10-30T04:48:13.885Z,12.82
2022-10-30T04:50:18.728Z,12.80
2022-10-30T04:52:23.649Z,12.77
2022-10-30T04:54:28.830Z,12.71
2022-10-30T04:56:33.571Z,12.62
2022-10-30T04:58:37.388Z,12.52
2022-10-30T05:00:43.133Z,12.43
2022-10-30T05:02:51.195Z,12.35
2022-10-30T05:04:54.960Z,12.29
2022-10-30T05:06:59.523Z,12.22
2022-10-30T05:09:05.137Z,12.15
2022-10-30T05:11:12.201Z,12.07
2022-10-30T05:13:15.953Z,12.01
2022-10-30T05:15:19.687Z,11.94
2022-10-30T05:17:24.234Z,11.87
2022-10-30T05:19:28.004Z,11.77
2022-10-30T05:21:33.613Z,11.68
2022-10-30T05:23:37.207Z,11.61
2022-10-30T05:25:43.947Z,11.58
2022-10-30T05:27:49.177Z,11.54
2022-10-30T05:29:55.638Z,11.50
2022-10-30T05:31:59.372Z,11.48
2022-10-30T05:34:14.120Z,11.43
2022-10-30T05:36:18.356Z,11.37
2022-10-30T05:38:22.044Z,11.28
2022-10-30T05:40:27.392Z,11.21
2022-10-30T05:42:32.396Z,11.15
2022-10-30T05:44:59.673Z,11.12
2022-10-30T05:47:02.624Z,11.07
2022-10-30T05:49:09.687Z,11.05
2022-10-30T05:51:13.576Z,11.03
2022-10-30T05:53:21.938Z,11.01
2022-10-30T05:55:26.140Z,10.99
2022-10-30T05:57:46.747Z,10.98
2022-10-30T05:59:50.406Z,10.99
2022-10-30T06:01:53.862Z,11.00
2022-10-30T06:03:57.514Z,11.02
2022-10-30T06:06:01.174Z,11.06
2022-10-30T06:08:06.179Z,11.08
2022-10-30T06:10:11.344Z,11.09
2022-10-30T06:12:24.920Z,11.13
2022-10-30T06:15:05.637Z,11.17
2022-10-30T06:17:09.606Z,11.18
2022-10-30T06:19:36.965Z,11.17
2022-10-30T06:21:59.071Z,11.16
2022-10-30T06:24:14.156Z,11.16
2022-10-30T06:26:28.496Z,11.12
2022-10-30T06:28:37.636Z,11.10
2022-10-30T06:30:43.089Z,11.09
2022-10-30T06:32:47.174Z,11.10
2022-10-30T06:34:50.749Z,11.10
2022-10-30T06:36:55.219Z,11.10
2022-10-30T06:38:59.163Z,11.11
2022-10-30T06:41:07.974Z,11.11
2022-10-30T06:43:34.750Z,11.09
2022-10-30T06:45:43.467Z,11.07
2022-10-30T06:47:47.028Z,11.05
2022-10-30T06:49:50.763Z,11.03
2022-10-30T06:51:54.498Z,11.00
2022-10-30T06:53:58.576Z,10.99
2022-10-30T06:56:17.448Z,10.99
2022-10-30T06:58:40.245Z,10.97
2022-10-30T07:03:30.287Z,10.96
2022-10-30T07:05:33.893Z,10.95
2022-10-30T07:07:37.953Z,10.95
2022-10-30T07:09:42.617Z,10.93
2022-10-30T07:11:46.829Z,10.92
2022-10-30T07:14:01.705Z,10.87
2022-10-30T07:16:25.192Z,10.88
2022-10-30T07:18:28.612Z,10.90
2022-10-30T07:20:36.192Z,10.91
2022-10-30T07:22:40.660Z,10.93
2022-10-30T07:24:45.224Z,10.94
2022-10-30T07:27:00.055Z,10.96
2022-10-30T07:29:11.677Z,11.01
2022-10-30T07:31:29.003Z,11.02
2022-10-30T07:34:07.792Z,10.97
2022-10-30T07:36:18.385Z,10.95
2022-10-30T07:38:49.168Z,10.96
2022-10-30T07:41:04.680Z,10.87
2022-10-30T07:43:25.962Z,10.81
2022-10-30T07:45:38.197Z,10.78
2022-10-30T07:48:10.676Z,10.71
2022-10-30T07:50:25.328Z,10.68
2022-10-30T07:52:33.812Z,10.71
2022-10-30T07:54:38.165Z,10.76
2022-10-30T07:57:04.389Z,10.73
2022-10-30T07:59:26.613Z,10.70
2022-10-30T08:01:53.191Z,10.68
2022-10-30T08:04:14.210Z,10.70
2022-10-30T08:06:23.225Z,10.71
2022-10-30T08:08:30.068Z,10.72
2022-10-30T08:10:54.563Z,10.72
2022-10-30T08:12:58.107Z,10.72
2022-10-30T08:15:02.347Z,10.73
2022-10-30T08:17:07.879Z,10.75
2022-10-30T08:19:11.471Z,10.77
2022-10-30T08:21:15.127Z,10.80
2022-10-30T08:23:31.598Z,10.82
2022-10-30T08:25:40.026Z,10.83
2022-10-30T08:27:52.907Z,10.86
2022-10-30T08:29:56.593Z,10.90
2022-10-30T08:32:00.289Z,10.95
2022-10-30T08:34:23.395Z,11.00
2022-10-30T08:36:31.940Z,11.04
2022-10-30T08:38:37.873Z,11.05
2022-10-30T08:41:09.522Z,11.05
2022-10-30T08:43:20.860Z,11.06
2022-10-30T08:45:29.880Z,11.08
2022-10-30T08:47:43.744Z,11.08
2022-10-30T08:49:47.459Z,11.14
2022-10-30T08:51:55.905Z,11.21
2022-10-30T08:54:01.544Z,11.27
2022-10-30T08:56:05.690Z,11.41
2022-10-30T08:58:21.622Z,11.58
2022-10-30T09:00:25.903Z,11.73
2022-10-30T09:02:56.101Z,11.90
2022-10-30T09:05:32.223Z,12.07
2022-10-30T09:07:58.325Z,12.21
2022-10-30T09:10:32.049Z,12.37
2022-10-30T09:12:37.259Z,12.52
2022-10-30T09:14:40.996Z,12.67
2022-10-30T09:16:46.051Z,12.79
2022-10-30T09:18:52.086Z,12.88
2022-10-30T09:20:56.290Z,12.94
2022-10-30T09:23:01.509Z,13.01
2022-10-30T09:25:06.404Z,13.13
2022-10-30T09:27:30.316Z,13.19
2022-10-30T09:29:36.978Z,13.22
2022-10-30T09:31:44.556Z,13.33
2022-10-30T09:33:51.952Z,13.46
2022-10-30T09:36:22.086Z,13.53
2022-10-30T09:38:26.496Z,13.67
2022-10-30T09:40:55.582Z,13.90
2022-10-30T09:43:09.419Z,14.04
2022-10-30T09:45:55.481Z,14.26
2022-10-30T09:48:13.144Z,14.48
2022-10-30T09:50:48.304Z,14.51
2022-10-30T09:53:02.189Z,14.62
2022-10-30T09:55:29.292Z,14.77
2022-10-30T09:57:41.136Z,14.89
2022-10-30T09:59:59.763Z,14.99
2022-10-30T10:02:17.521Z,14.98
2022-10-30T10:04:29.265Z,15.05
2022-10-30T10:06:58.722Z,15.13
2022-10-30T10:09:18.468Z,15.17
2022-10-30T10:11:43.216Z,15.21
2022-10-30T10:13:51.892Z,15.28
2022-10-30T10:16:01.257Z,15.35
2022-10-30T10:18:08.625Z,15.44
2022-10-30T10:20:18.590Z,15.53
2022-10-30T10:22:23.844Z,15.65
2022-10-30T10:24:31.122Z,15.87
2022-10-30T10:26:48.854Z,15.99
2022-10-30T10:29:13.837Z,15.86
2022-10-30T10:31:29.076Z,15.70
2022-10-30T10:33:57.800Z,15.51
2022-10-30T10:36:15.220Z,15.41
2022-10-30T10:38:31.404Z,15.20
2022-10-30T10:40:49.330Z,15.08
2022-10-30T10:43:06.781Z,15.19
2022-10-30T10:45:27.115Z,15.23
2022-10-30T10:47:53.248Z,15.04
2022-10-30T10:50:15.312Z,14.69
2022-10-30T10:52:23.173Z,14.53
2022-10-30T10:54:33.196Z,14.40
2022-10-30T10:56:41.211Z,14.30
2022-10-30T10:58:52.647Z,14.23
2022-10-30T11:00:59.707Z,14.17
2022-10-30T11:03:11.663Z,14.16
2022-10-30T11:05:26.197Z,14.31
2022-10-30T11:07:33.971Z,14.52
2022-10-30T11:09:37.706Z,14.70
2022-10-30T11:11:43.739Z,14.87
2022-10-30T11:13:47.607Z,15.03
2022-10-30T11:15:59.920Z,15.15
2022-10-30T11:18:08.678Z,15.28
2022-10-30T11:20:19.518Z,15.33
2022-10-30T11:22:28.787Z,15.36
2022-10-30T11:24:34.416Z,15.37
2022-10-30T11:26:37.991Z,15.38
2022-10-30T11:28:51.510Z,15.30
2022-10-30T11:31:19.166Z,15.16
2022-10-30T11:33:30.884Z,14.98
2022-10-30T11:35:43.954Z,14.81
2022-10-30T11:37:49.137Z,14.68
2022-10-30T11:40:04.290Z,14.53
2022-10-30T11:42:14.923Z,14.38
2022-10-30T11:44:19.273Z,14.25
2022-10-30T11:46:25.327Z,14.12
2022-10-30T11:48:34.471Z,14.05
2022-10-30T11:50:38.327Z,13.94
2022-10-30T11:52:45.544Z,13.86
2022-10-30T11:54:54.048Z,13.80
2022-10-30T11:56:59.812Z,13.71
2022-10-30T11:59:05.606Z,13.65
2022-10-30T12:01:17.137Z,13.60
2022-10-30T12:03:32.219Z,13.53
2022-10-30T12:05:43.613Z,13.50
2022-10-30T12:07:48.688Z,13.47
2022-10-30T12:09:53.351Z,13.50
2022-10-30T12:12:03.041Z,13.56
2022-10-30T12:14:16.969Z,13.60
2022-10-30T12:16:21.131Z,13.69
2022-10-30T12:20:40.594Z,13.84
2022-10-30T12:22:49.793Z,13.99
2022-10-30T12:25:05.385Z,14.11
2022-10-30T12:27:19.807Z,14.18
2022-10-30T12:30:02.734Z,14.22
2022-10-30T12:32:07.151Z,14.26
2022-10-30T12:34:35.496Z,14.21
2022-10-30T12:36:48.690Z,14.19
2022-10-30T12:38:55.858Z,14.19
2022-10-30T12:41:14.338Z,14.18
2022-10-30T12:43:24.627Z,14.21
2022-10-30T12:45:34.090Z,14.19
2022-10-30T12:47:47.046Z,14.19
2022-10-30T12:49:58.971Z,14.20
2022-10-30T12:52:12.969Z,14.19
2022-10-30T12:54:26.005Z,14.24
2022-10-30T12:56:35.537Z,14.30
2022-10-30T12:58:46.243Z,14.41
2022-10-30T13:00:56.496Z,14.45
2022-10-30T13:03:05.659Z,14.48
2022-10-30T13:05:22.890Z,14.44
2022-10-30T13:07:33.072Z,14.37
2022-10-30T13:09:42.308Z,14.32
2022-10-30T13:11:53.130Z,14.26
2022-10-30T13:14:02.129Z,14.19
2022-10-30T13:16:12.362Z,14.14
2022-10-30T13:18:18.799Z,14.08
2022-10-30T13:20:23.402Z,14.03
2022-10-30T13:22:38.591Z,13.94
2022-10-30T13:24:52.037Z,13.92
2022-10-30T13:27:01.750Z,13.91
2022-10-30T13:29:16.493Z,13.94
2022-10-30T13:31:29.701Z,13.96
2022-10-30T13:33:36.653Z,13.95
2022-10-30T13:35:48.769Z,13.96
2022-10-30T13:38:02.211Z,13.98
2022-10-30T13:40:17.934Z,13.97
2022-10-30T13:42:38.385Z,13.95
2022-10-30T13:44:53.253Z,13.90
2022-10-30T13:47:12.967Z,13.87
2022-10-30T13:49:34.619Z,13.86
2022-10-30T13:51:44.252Z,13.87
2022-10-30T13:53:57.382Z,13.88
2022-10-30T13:56:01.210Z,13.83
2022-10-30T13:58:10.345Z,13.79
2022-10-30T14:00:20.439Z,13.77
2022-10-30T14:02:38.780Z,13.75
2022-10-30T14:04:51.503Z,13.75
2022-10-30T14:07:15.719Z,13.74
2022-10-30T14:09:30.536Z,13.73
2022-10-30T14:11:34.224Z,13.75
2022-10-30T14:13:52.628Z,13.74
2022-10-30T14:16:01.568Z,13.74
2022-10-30T14:18:27.013Z,13.77
2022-10-30T14:20:30.728Z,13.83
2022-10-30T14:22:36.149Z,13.88
2022-10-30T14:24:46.833Z,13.88
2022-10-30T14:26:53.964Z,13.84
2022-10-30T14:28:58.227Z,13.83
2022-10-30T14:31:06.397Z,13.83
2022-10-30T14:33:43.522Z,13.80
2022-10-30T14:35:50.151Z,13.78
2022-10-30T14:37:58.488Z,13.76
2022-10-30T14:40:36.221Z,13.70
2022-10-30T14:42:49.585Z,13.67
2022-10-30T14:45:12.371Z,13.61
2022-10-30T14:47:39.785Z,13.54
2022-10-30T14:49:48.308Z,13.49
2022-10-30T14:52:05.054Z,13.47
2022-10-30T14:54:18.737Z,13.45
2022-10-30T14:56:34.796Z,13.44
2022-10-30T14:58:39.719Z,13.44
2022-10-30T15:00:44.966Z,13.41
2022-10-30T15:02:56.506Z,13.40
2022-10-30T15:05:24.711Z,13.39
2022-10-30T15:07:35.772Z,13.37
2022-10-30T15:09:55.065Z,13.35
2022-10-30T15:12:14.107Z,13.34
2022-10-30T15:14:39.942Z,13.33
2022-10-30T15:16:52.533Z,13.32
2022-10-30T15:19:01.995Z,13.32
2022-10-30T15:21:08.140Z,13.34
2022-10-30T15:23:20.386Z,13.31
2022-10-30T15:25:26.155Z,13.31
2022-10-30T15:27:36.712Z,13.30
2022-10-30T15:29:41.566Z,13.30
2022-10-30T15:31:45.354Z,13.31
2022-10-30T15:33:50.907Z,13.32
2022-10-30T15:35:54.342Z,13.32
2022-10-30T15:38:00.061Z,13.32
2022-10-30T15:40:18.534Z,13.34
2022-10-30T15:42:23.721Z,13.33
2022-10-30T15:44:31.821Z,13.32
2022-10-30T15:46:35.603Z,13.30
2022-10-30T15:48:42.419Z,13.27
2022-10-30T15:50:54.056Z,13.25
2022-10-30T15:52:58.110Z,13.21
2022-10-30T15:55:06.481Z,13.19
2022-10-30T15:58:01.708Z,13.16
2022-10-30T15:59:53.114Z,13.14
2022-10-30T16:01:58.747Z,13.11
2022-10-30T16:04:03.188Z,13.10
2022-10-30T16:06:16.866Z,13.06
2022-10-30T16:08:24.130Z,13.02
2022-10-30T16:10:31.416Z,13.00
2022-10-30T16:12:36.878Z,12.96
2022-10-30T16:14:44.019Z,12.90
2022-10-30T16:16:51.795Z,12.88
2022-10-30T16:19:00.896Z,12.85
2022-10-30T16:21:08.626Z,12.82
2022-10-30T16:23:14.202Z,12.80
2022-10-30T16:25:19.597Z,12.76
2022-10-30T16:27:26.072Z,12.73
2022-10-30T16:29:31.681Z,12.72
2022-10-30T16:31:37.830Z,12.70
2022-10-30T16:33:44.959Z,12.68
2022-10-30T16:35:55.713Z,12.66
2022-10-30T16:38:02.830Z,12.64
2022-10-30T16:40:15.060Z,12.63
2022-10-30T16:42:22.894Z,12.60
2022-10-30T16:44:30.558Z,12.58
2022-10-30T16:46:39.423Z,12.56
2022-10-30T16:48:48.354Z,12.55
2022-10-30T16:50:53.240Z,12.52
2022-10-30T16:53:07.874Z,12.49
2022-10-30T16:55:18.580Z,12.44
2022-10-30T16:57:28.164Z,12.41
2022-10-30T16:59:39.140Z,12.39
2022-10-30T17:01:43.144Z,12.37
2022-10-30T17:03:50.310Z,12.36
2022-10-30T17:06:04.893Z,12.34
2022-10-30T17:08:31.283Z,12.33
2022-10-30T17:10:37.672Z,12.33
2022-10-30T17:12:41.496Z,12.30
2022-10-30T17:14:50.046Z,12.29
2022-10-30T17:16:56.409Z,12.29
2022-10-30T17:19:03.831Z,12.27
2022-10-30T17:21:12.382Z,12.28
2022-10-30T17:23:21.084Z,12.27
2022-10-30T17:25:36.260Z,12.25
2022-10-30T17:27:47.455Z,12.24
2022-10-30T17:29:51.254Z,12.24
2022-10-30T17:32:00.200Z,12.22
2022-10-30T17:34:18.679Z,12.22
2022-10-30T17:36:22.253Z,12.19
2022-10-30T17:38:26.398Z,12.18
2022-10-30T17:40:30.577Z,12.19
2022-10-30T17:42:34.751Z,12.18
2022-10-30T17:44:38.693Z,12.17
2022-10-30T17:46:44.262Z,12.15
2022-10-30T17:48:47.922Z,12.14
2022-10-30T17:50:53.045Z,12.16
2022-10-30T17:52:57.188Z,12.13
2022-10-30T17:55:03.006Z,12.13
2022-10-30T17:57:06.763Z,12.12
2022-10-30T17:59:10.226Z,12.12
2022-10-30T18:01:17.446Z,12.12
2022-10-30T18:03:21.126Z,12.11
2022-10-30T18:05:29.155Z,12.12
2022-10-30T18:07:34.223Z,12.12
2022-10-30T18:09:38.179Z,12.11
2022-10-30T18:11:41.941Z,12.13
2022-10-30T18:13:45.668Z,12.11
2022-10-30T18:15:55.654Z,12.12
2022-10-30T18:17:59.604Z,12.12
2022-10-30T18:20:03.153Z,12.12
2022-10-30T18:22:06.663Z,12.12
2022-10-30T18:24:16.747Z,12.12
2022-10-30T18:26:22.983Z,12.10
2022-10-30T18:28:26.581Z,12.09
2022-10-30T18:30:30.271Z,12.11
2022-10-30T18:32:34.195Z,12.11
2022-10-30T18:34:38.077Z,12.10
2022-10-30T18:36:41.753Z,12.09
2022-10-30T18:38:45.364Z,12.08
2022-10-30T18:40:51.031Z,12.07
2022-10-30T18:42:54.804Z,12.07
2022-10-30T18:44:58.199Z,12.07
2022-10-30T18:47:03.324Z,12.06
2022-10-30T18:49:07.719Z,12.06
2022-10-30T18:51:17.331Z,12.05
2022-10-30T18:53:21.348Z,12.05
2022-10-30T18:55:27.272Z,12.04
2022-10-30T18:57:32.531Z,12.04
2022-10-30T18:59:36.436Z,12.01
2022-10-30T19:01:40.159Z,12.01
2022-10-30T19:03:44.879Z,11.99
2022-10-30T19:05:50.184Z,11.98
2022-10-30T19:07:53.952Z,11.98
2022-10-30T19:09:59.627Z,11.96
2022-10-30T19:12:03.441Z,11.94
2022-10-30T19:14:13.774Z,11.95
2022-10-30T19:16:19.217Z,11.93
2022-10-30T19:18:25.979Z,11.93
2022-10-30T19:20:44.052Z,11.92
2022-10-30T19:22:53.495Z,11.93
2022-10-30T19:24:57.246Z,11.92
2022-10-30T19:27:00.711Z,11.93
2022-10-30T19:29:04.777Z,11.94
2022-10-30T19:31:15.628Z,11.94
2022-10-30T19:33:20.710Z,11.94
2022-10-30T19:35:27.359Z,11.95
2022-10-30T19:37:31.151Z,11.94
2022-10-30T19:39:35.382Z,11.94
2022-10-30T19:41:40.245Z,11.96
2022-10-30T19:43:44.262Z,11.95
2022-10-30T19:45:51.278Z,11.95
2022-10-30T19:48:02.349Z,11.94
2022-10-30T19:50:23.173Z,11.93
2022-10-30T19:52:29.376Z,11.95
2022-10-30T19:54:34.896Z,11.96
2022-10-30T19:56:39.805Z,11.94
2022-10-30T19:58:43.945Z,11.95
2022-10-30T20:00:47.972Z,11.94
2022-10-30T20:02:52.715Z,11.94
2022-10-30T20:04:57.904Z,11.94
2022-10-30T20:07:02.744Z,11.92
2022-10-30T20:09:07.561Z,11.91
2022-10-30T20:11:11.555Z,11.91
2022-10-30T20:13:15.791Z,11.89
2022-10-30T20:15:23.983Z,11.87
2022-10-30T20:17:29.490Z,11.85
2022-10-30T20:19:33.386Z,11.84
2022-10-30T20:21:49.059Z,11.84
2022-10-30T20:23:53.756Z,11.83
2022-10-30T20:26:01.750Z,11.82
2022-10-30T20:28:19.846Z,11.82
2022-10-30T20:30:24.445Z,11.81
2022-10-30T20:32:29.796Z,11.80
2022-10-30T20:34:33.522Z,11.77
2022-10-30T20:36:37.278Z,11.77
2022-10-30T20:38:42.575Z,11.74
2022-10-30T20:40:46.934Z,11.73
2022-10-30T20:42:50.707Z,11.72
2022-10-30T20:44:54.562Z,11.71
2022-10-30T20:46:58.088Z,11.71
2022-10-30T20:49:16.760Z,11.69
2022-10-30T20:51:22.709Z,11.67
2022-10-30T20:53:26.368Z,11.64
2022-10-30T20:55:31.989Z,11.60
2022-10-30T20:59:41.636Z,11.62
2022-10-30T21:01:46.180Z,11.65
2022-10-30T21:03:51.219Z,11.67
2022-10-30T21:05:58.878Z,11.68
2022-10-30T21:08:03.441Z,11.69
2022-10-30T21:10:09.018Z,11.69
2022-10-30T21:12:15.179Z,11.71
2022-10-30T21:14:19.571Z,11.71
2022-10-30T21:16:24.093Z,11.69
2022-10-30T21:18:28.070Z,11.70
2022-10-30T21:20:32.439Z,11.70
2022-10-30T21:22:37.093Z,11.72
2022-10-30T21:24:41.279Z,11.73
2022-10-30T21:26:45.649Z,11.71
2022-10-30T21:28:51.094Z,11.69
2022-10-30T21:30:55.824Z,11.67
2022-10-30T21:33:01.127Z,11.65
2022-10-30T21:35:07.740Z,11.64
2022-10-30T21:37:12.174Z,11.63
2022-10-30T21:39:16.485Z,11.61
2022-10-30T21:41:22.745Z,11.61
2022-10-30T21:43:27.361Z,11.63
2022-10-30T21:45:32.797Z,11.63
2022-10-30T21:47:37.324Z,11.64
2022-10-30T21:49:48.907Z,11.65
2022-10-30T21:51:53.423Z,11.65
2022-10-30T21:53:58.250Z,11.67
2022-10-30T21:56:06.439Z,11.66
2022-10-30T21:58:10.552Z,11.69
2022-10-30T22:00:16.589Z,11.72
2022-10-30T22:02:22.376Z,11.74
2022-10-30T22:04:26.525Z,11.74
2022-10-30T22:06:31.719Z,11.73
2022-10-30T22:08:36.437Z,11.73
2022-10-30T22:10:41.052Z,11.72
2022-10-30T22:12:46.661Z,11.69
2022-10-30T22:14:51.502Z,11.68
2022-10-30T22:16:55.366Z,11.68
2022-10-30T22:19:03.052Z,11.67
2022-10-30T22:21:10.217Z,11.67
2022-10-30T22:23:14.803Z,11.67
2022-10-30T22:25:19.264Z,11.69
2022-10-30T22:27:26.715Z,11.69
2022-10-30T22:29:31.558Z,11.71
2022-10-30T22:31:35.971Z,11.72
2022-10-30T22:33:40.722Z,11.74
2022-10-30T22:35:47.063Z,11.75
2022-10-30T22:37:51.208Z,11.75
2022-10-30T22:39:55.418Z,11.78
2022-10-30T22:41:59.823Z,11.81
2022-10-30T22:44:04.236Z,11.83
2022-10-30T22:46:09.221Z,11.84
2022-10-30T22:48:13.988Z,11.87
2022-10-30T22:50:18.801Z,11.90
2022-10-30T22:52:24.854Z,11.92
2022-10-30T22:54:29.379Z,11.93
2022-10-30T22:56:35.360Z,11.96
2022-10-30T22:58:53.955Z,11.99
2022-10-30T23:01:09.335Z,12.00
2022-10-30T23:03:13.896Z,12.01
2022-10-30T23:05:18.163Z,12.02
2022-10-30T23:07:27.414Z,12.01
2022-10-30T23:09:31.829Z,12.01
2022-10-30T23:11:36.575Z,12.00
2022-10-30T23:13:41.896Z,11.98
2022-10-30T23:15:46.521Z,11.98
2022-10-30T23:17:51.021Z,11.98
2022-10-30T23:19:55.995Z,12.01
2022-10-30T23:22:04.525Z,12.04
2022-10-30T23:24:10.556Z,12.05
2022-10-30T23:26:16.895Z,12.04
2022-10-30T23:28:21.037Z,12.04
2022-10-30T23:30:25.308Z,12.02
2022-10-30T23:32:29.670Z,12.00
2022-10-30T23:34:34.466Z,11.98
2022-10-30T23:36:39.883Z,11.99
2022-10-30T23:38:44.314Z,11.97
2022-10-30T23:41:01.130Z,11.98
2022-10-30T23:43:05.939Z,11.98
2022-10-30T23:45:11.470Z,11.99
2022-10-30T23:47:15.753Z,11.99
2022-10-30T23:49:21.896Z,11.99
2022-10-30T23:51:27.794Z,11.98
2022-10-30T23:53:32.877Z,11.97
2022-10-30T23:55:37.292Z,11.96
2022-10-30T23:57:43.512Z,11.94
2022-10-30T23:59:48.729Z,11.91
